createdAt,value
2017-09-24T00:00:06.837Z,22.70
2017-09-24T00:02:33.507Z,23.48
2017-09-24T00:05:00.134Z,24.00
2017-09-24T00:07:26.740Z,23.23
2017-09-24T00:09:53.360Z,24.48
2017-09-24T00:12:19.981Z,25.75
2017-09-24T00:14:47.424Z,21.75
2017-09-24T00:17:14.042Z,23.95
2017-09-24T00:19:40.670Z,24.75
2017-09-24T00:22:07.282Z,22.60
2017-09-24T00:24:33.897Z,22.60
2017-09-24T00:27:00.524Z,24.80
2017-09-24T00:29:27.137Z,23.87
2017-09-24T00:31:53.745Z,25.10
2017-09-24T00:34:20.369Z,22.42
2017-09-24T00:36:47.067Z,22.58
2017-09-24T00:39:13.673Z,24.58
2017-09-24T00:41:40.309Z,24.70
2017-09-24T00:44:06.987Z,25.73
2017-09-24T00:46:33.593Z,24.65
2017-09-24T00:49:00.222Z,24.67
2017-09-24T00:51:26.901Z,23.12
2017-09-24T00:53:53.510Z,25.02
2017-09-24T00:56:20.178Z,24.33
2017-09-24T00:58:46.791Z,24.52
2017-09-24T01:01:13.397Z,24.05
2017-09-24T01:03:40.026Z,24.98
2017-09-24T01:06:06.635Z,26.30
2017-09-24T01:08:33.249Z,24.77
2017-09-24T01:10:59.874Z,24.52
2017-09-24T01:13:26.546Z,25.58
2017-09-24T01:15:53.155Z,26.33
2017-09-24T01:18:19.785Z,23.90
2017-09-24T01:20:46.397Z,27.00
2017-09-24T01:23:13.101Z,25.25
2017-09-24T01:25:39.721Z,25.00
2017-09-24T01:28:06.381Z,25.95
2017-09-24T01:30:32.994Z,26.75
2017-09-24T01:32:59.622Z,25.27
2017-09-24T01:35:26.242Z,23.90
2017-09-24T01:37:52.858Z,23.92
2017-09-24T01:40:19.577Z,25.00
2017-09-24T01:42:46.190Z,24.73
2017-09-24T01:45:12.804Z,24.70
2017-09-24T01:47:39.500Z,24.10
2017-09-24T01:50:06.110Z,25.05
2017-09-24T01:52:32.721Z,26.85
2017-09-24T01:54:59.352Z,26.40
2017-09-24T01:57:25.966Z,25.33
2017-09-24T01:59:52.583Z,24.00
2017-09-24T02:02:19.215Z,25.30
2017-09-24T02:04:45.822Z,27.60
2017-09-24T02:07:12.440Z,26.08
2017-09-24T02:09:39.066Z,26.50
2017-09-24T02:12:05.673Z,27.45
2017-09-24T02:14:32.285Z,26.62
2017-09-24T02:16:58.906Z,28.30
2017-09-24T02:19:25.522Z,27.95
2017-09-24T02:21:52.133Z,28.00
2017-09-24T02:24:18.757Z,27.48
2017-09-24T02:26:45.374Z,27.00
2017-09-24T02:29:11.988Z,28.35
2017-09-24T02:31:38.609Z,28.30
2017-09-24T02:34:05.217Z,30.67
2017-09-24T02:36:31.830Z,27.98
2017-09-24T02:38:58.462Z,28.98
2017-09-24T02:41:25.073Z,31.40
2017-09-24T02:43:51.689Z,29.05
2017-09-24T02:46:18.425Z,28.60
2017-09-24T02:48:45.068Z,27.90
2017-09-24T02:51:11.705Z,27.45
2017-09-24T02:53:38.447Z,28.45
2017-09-24T02:56:05.062Z,28.33
2017-09-24T02:58:31.670Z,28.05
2017-09-24T03:00:58.304Z,29.05
2017-09-24T03:03:24.914Z,30.42
2017-09-24T03:05:51.527Z,27.95
2017-09-24T03:08:18.154Z,25.40
2017-09-24T03:10:44.814Z,29.52
2017-09-24T03:13:11.460Z,29.25
2017-09-24T03:15:38.082Z,29.67
2017-09-24T03:18:04.693Z,26.33
2017-09-24T03:20:31.375Z,28.52
2017-09-24T03:22:58.007Z,27.23
2017-09-24T03:25:24.622Z,28.80
2017-09-24T03:27:51.230Z,29.00
2017-09-24T03:30:17.868Z,28.15
2017-09-24T03:32:44.566Z,27.73
2017-09-24T03:35:11.184Z,27.58
2017-09-24T03:37:37.805Z,28.92
2017-09-24T03:40:04.482Z,28.52
2017-09-24T03:42:31.117Z,27.13
2017-09-24T03:44:57.755Z,27.40
2017-09-24T03:47:24.366Z,27.67
2017-09-24T03:49:50.978Z,26.95
2017-09-24T03:52:17.611Z,27.15
2017-09-24T03:54:44.285Z,28.25
2017-09-24T03:57:10.904Z,29.00
2017-09-24T03:59:37.536Z,27.20
2017-09-24T04:02:04.142Z,27.62
2017-09-24T04:04:30.755Z,28.15
2017-09-24T04:06:57.386Z,27.87
2017-09-24T04:09:23.998Z,27.77
2017-09-24T04:11:50.617Z,28.45
2017-09-24T04:14:17.243Z,27.35
2017-09-24T04:16:43.862Z,26.83
2017-09-24T04:19:10.506Z,27.30
2017-09-24T04:21:37.246Z,27.30
2017-09-24T04:24:03.858Z,27.45
2017-09-24T04:26:30.471Z,28.02
2017-09-24T04:28:57.107Z,26.15
2017-09-24T04:31:23.717Z,26.92
2017-09-24T04:33:50.330Z,25.62
2017-09-24T04:36:16.973Z,27.20
2017-09-24T04:38:43.590Z,28.10
2017-09-24T04:41:10.262Z,26.92
2017-09-24T04:43:36.990Z,27.45
2017-09-24T04:46:03.601Z,27.25
2017-09-24T04:48:30.318Z,26.58
2017-09-24T04:50:57.013Z,26.62
2017-09-24T04:53:23.619Z,27.27
2017-09-24T04:55:50.233Z,26.95
2017-09-24T04:58:16.858Z,27.13
2017-09-24T05:00:43.575Z,27.13
2017-09-24T05:03:10.191Z,26.37
2017-09-24T05:05:36.856Z,27.50
2017-09-24T05:08:03.470Z,26.90
2017-09-24T05:10:30.091Z,25.50
2017-09-24T05:12:56.775Z,25.40
2017-09-24T05:15:23.393Z,25.70
2017-09-24T05:17:49.996Z,25.95
2017-09-24T05:20:16.635Z,25.40
2017-09-24T05:22:43.322Z,28.48
2017-09-24T05:25:09.933Z,24.50
2017-09-24T05:27:36.556Z,24.33
2017-09-24T05:30:03.176Z,25.10
2017-09-24T05:32:29.783Z,24.77
2017-09-24T05:34:56.418Z,24.48
2017-09-24T05:37:23.026Z,25.85
2017-09-24T05:39:49.635Z,24.23
2017-09-24T05:42:16.266Z,24.80
2017-09-24T05:44:42.874Z,25.35
2017-09-24T05:47:09.494Z,24.33
2017-09-24T05:49:36.122Z,22.92
2017-09-24T05:52:02.738Z,23.12
2017-09-24T05:54:29.429Z,22.40
2017-09-24T05:56:56.176Z,23.20
2017-09-24T05:59:22.810Z,22.23
2017-09-24T06:01:49.426Z,22.67
2017-09-24T06:04:16.086Z,23.15
2017-09-24T06:06:42.703Z,24.40
2017-09-24T06:09:09.363Z,22.17
2017-09-24T06:11:35.986Z,22.70
2017-09-24T06:14:02.602Z,23.80
2017-09-24T06:16:29.210Z,22.92
2017-09-24T06:18:55.838Z,23.50
2017-09-24T06:21:22.458Z,24.92
2017-09-24T06:23:49.072Z,23.25
2017-09-24T06:26:15.702Z,24.37
2017-09-24T06:28:42.305Z,21.55
2017-09-24T06:31:09.013Z,23.70
2017-09-24T06:33:35.642Z,22.17
2017-09-24T06:36:02.258Z,22.48
2017-09-24T06:38:28.871Z,22.52
2017-09-24T06:40:55.503Z,26.77
2017-09-24T06:43:22.114Z,24.12
2017-09-24T06:45:48.750Z,23.10
2017-09-24T06:48:15.383Z,22.95
2017-09-24T06:50:41.990Z,24.73
2017-09-24T06:53:08.600Z,23.12
2017-09-24T06:55:35.234Z,23.60
2017-09-24T06:58:01.837Z,23.90
2017-09-24T07:00:28.477Z,22.45
2017-09-24T07:02:55.110Z,23.20
2017-09-24T07:05:21.749Z,23.85
2017-09-24T07:07:48.363Z,21.98
2017-09-24T07:10:14.983Z,21.37
2017-09-24T07:12:41.604Z,21.77
2017-09-24T07:15:08.208Z,22.27
2017-09-24T07:17:34.842Z,20.98
2017-09-24T07:20:01.454Z,22.08
2017-09-24T07:22:28.059Z,20.42
2017-09-24T07:24:54.766Z,22.83
2017-09-24T07:27:21.383Z,22.95
2017-09-24T07:29:47.989Z,25.42
2017-09-24T07:32:14.614Z,21.27
2017-09-24T07:34:41.229Z,21.87
2017-09-24T07:37:07.838Z,22.70
2017-09-24T07:39:34.494Z,21.10
2017-09-24T07:42:01.112Z,22.80
2017-09-24T07:44:27.718Z,23.87
2017-09-24T07:46:54.413Z,21.40
2017-09-24T07:49:21.029Z,22.87
2017-09-24T07:51:47.689Z,22.05
2017-09-24T07:54:14.313Z,22.62
2017-09-24T07:56:40.921Z,22.90
2017-09-24T07:59:07.529Z,21.33
2017-09-24T08:01:34.164Z,21.52
2017-09-24T08:04:00.774Z,21.25
2017-09-24T08:06:27.398Z,20.98
2017-09-24T08:08:54.026Z,22.08
2017-09-24T08:11:20.706Z,20.35
2017-09-24T08:13:47.313Z,22.27
2017-09-24T08:16:13.942Z,21.30
2017-09-24T08:18:40.558Z,23.62
2017-09-24T08:21:07.257Z,21.40
2017-09-24T08:23:33.999Z,20.83
2017-09-24T08:26:00.638Z,20.05
2017-09-24T08:28:27.250Z,17.80
2017-09-24T08:30:53.874Z,18.92
2017-09-24T08:33:20.558Z,18.12
2017-09-24T08:35:47.175Z,17.52
2017-09-24T08:38:13.802Z,18.05
2017-09-24T08:40:40.475Z,18.62
2017-09-24T08:43:07.109Z,18.05
2017-09-24T08:45:33.747Z,17.98
2017-09-24T08:48:00.393Z,20.60
2017-09-24T08:50:27.015Z,18.75
2017-09-24T08:52:53.638Z,17.92
2017-09-24T08:55:20.311Z,18.55
2017-09-24T08:57:46.926Z,18.55
2017-09-24T09:00:13.558Z,18.42
2017-09-24T09:02:40.222Z,18.27
2017-09-24T09:05:06.861Z,19.75
2017-09-24T09:07:33.481Z,16.60
2017-09-24T09:10:00.138Z,16.70
2017-09-24T09:12:26.769Z,17.25
2017-09-24T09:14:53.397Z,15.00
2017-09-24T09:17:20.049Z,15.30
2017-09-24T09:19:46.698Z,15.63
2017-09-24T09:22:13.325Z,15.13
2017-09-24T09:24:39.942Z,13.55
2017-09-24T09:27:06.555Z,13.02
2017-09-24T09:29:33.192Z,10.93
2017-09-24T09:31:59.806Z,11.68
2017-09-24T09:34:34.419Z,10.02
2017-09-24T09:37:01.021Z,8.48
2017-09-24T09:39:27.638Z,10.65
2017-09-24T09:41:54.330Z,9.38
2017-09-24T09:44:26.910Z,9.60
2017-09-24T09:46:58.494Z,10.10
2017-09-24T09:49:25.107Z,7.43
2017-09-24T09:51:51.718Z,7.57
2017-09-24T09:54:18.346Z,6.12
2017-09-24T09:56:44.949Z,6.22
2017-09-24T09:59:11.553Z,7.22
2017-09-24T10:01:38.178Z,10.68
2017-09-24T10:04:05.087Z,11.73
2017-09-24T10:06:37.846Z,10.00
2017-09-24T10:09:10.379Z,10.10
2017-09-24T10:11:37.002Z,10.25
2017-09-24T10:14:04.032Z,8.65
2017-09-24T10:16:30.830Z,8.20
2017-09-24T10:18:57.458Z,11.02
2017-09-24T10:21:24.358Z,9.10
2017-09-24T10:23:52.035Z,12.50
2017-09-24T10:26:18.670Z,10.45
2017-09-24T10:28:51.341Z,7.97
2017-09-24T10:31:38.886Z,8.05
2017-09-24T10:34:05.778Z,9.20
2017-09-24T10:36:32.762Z,8.57
2017-09-24T10:38:59.698Z,8.60
2017-09-24T10:41:26.405Z,6.80
2017-09-24T10:43:53.088Z,6.87
2017-09-24T10:46:19.966Z,6.82
2017-09-24T10:48:47.392Z,7.65
2017-09-24T10:51:14.951Z,6.85
2017-09-24T10:53:42.307Z,7.40
2017-09-24T10:56:09.274Z,7.03
2017-09-24T10:58:36.507Z,8.63
2017-09-24T11:01:04.819Z,8.20
2017-09-24T11:03:31.650Z,7.22
2017-09-24T11:05:58.499Z,5.53
2017-09-24T11:08:25.117Z,6.18
2017-09-24T11:10:52.265Z,12.25
2017-09-24T11:13:19.957Z,24.05
2017-09-24T11:15:46.602Z,4.90
2017-09-24T11:18:13.214Z,26.65
2017-09-24T11:20:40.662Z,14.80
2017-09-24T11:23:08.239Z,12.07
2017-09-24T11:25:34.901Z,9.77
2017-09-24T11:28:01.562Z,5.07
2017-09-24T11:30:28.463Z,5.43
2017-09-24T11:32:55.146Z,9.65
2017-09-24T11:35:23.568Z,6.07
2017-09-24T11:37:50.413Z,6.80
2017-09-24T11:40:17.069Z,4.60
2017-09-24T11:42:43.750Z,7.43
2017-09-24T11:45:10.370Z,4.80
2017-09-24T11:47:37.016Z,5.03
2017-09-24T11:50:03.642Z,4.75
2017-09-24T11:52:30.262Z,4.00
2017-09-24T11:54:57.192Z,5.22
2017-09-24T11:57:23.879Z,8.30
2017-09-24T11:59:50.716Z,4.72
2017-09-24T12:02:17.620Z,7.37
2017-09-24T12:04:44.568Z,5.22
2017-09-24T12:07:11.307Z,5.22
2017-09-24T12:09:37.906Z,6.15
2017-09-24T12:12:04.522Z,5.35
2017-09-24T12:14:31.803Z,5.53
2017-09-24T12:16:58.949Z,5.50
2017-09-24T12:19:25.686Z,5.30
2017-09-24T12:21:53.191Z,7.10
2017-09-24T12:24:20.058Z,5.30
2017-09-24T12:26:46.776Z,3.50
2017-09-24T12:29:14.030Z,4.47
2017-09-24T12:31:40.976Z,3.45
2017-09-24T12:34:08.025Z,4.22
2017-09-24T12:36:34.683Z,3.83
2017-09-24T12:39:01.361Z,3.55
2017-09-24T12:41:27.965Z,3.22
2017-09-24T12:43:54.615Z,10.07
2017-09-24T12:46:21.294Z,3.40
2017-09-24T12:48:47.896Z,4.22
2017-09-24T12:51:14.521Z,5.10
2017-09-24T12:53:41.135Z,3.90
2017-09-24T12:56:07.750Z,2.22
2017-09-24T12:58:34.389Z,2.17
2017-09-24T13:01:00.990Z,6.07
2017-09-24T13:03:27.594Z,2.13
2017-09-24T13:05:54.213Z,2.47
2017-09-24T13:08:20.821Z,2.20
2017-09-24T13:10:47.425Z,6.93
2017-09-24T13:13:14.043Z,1.10
2017-09-24T13:15:40.641Z,0.70
2017-09-24T13:18:07.282Z,2.43
2017-09-24T13:20:33.901Z,2.40
2017-09-24T13:23:00.497Z,1.50
2017-09-24T13:25:27.106Z,4.13
2017-09-24T13:27:53.831Z,3.57
2017-09-24T13:30:20.433Z,0.80
2017-09-24T13:32:47.038Z,1.00
2017-09-24T13:35:13.754Z,8.33
2017-09-24T13:37:40.357Z,1.27
2017-09-24T13:40:06.958Z,1.87
2017-09-24T13:42:33.578Z,1.73
2017-09-24T13:45:00.186Z,1.67
2017-09-24T13:47:26.787Z,3.33
2017-09-24T13:49:53.407Z,1.97
2017-09-24T13:52:20.123Z,1.73
2017-09-24T13:54:46.725Z,1.70
2017-09-24T13:57:13.345Z,1.50
2017-09-24T13:59:39.954Z,1.20
2017-09-24T14:02:06.566Z,3.85
2017-09-24T14:04:33.187Z,1.52
2017-09-24T14:06:59.850Z,3.45
2017-09-24T14:09:26.454Z,2.22
2017-09-24T14:11:53.134Z,3.67
2017-09-24T14:14:19.733Z,3.70
2017-09-24T14:16:46.405Z,2.20
2017-09-24T14:19:13.038Z,12.75
2017-09-24T14:21:39.638Z,2.50
2017-09-24T14:24:06.237Z,3.65
2017-09-24T14:26:32.867Z,3.92
2017-09-24T14:28:59.473Z,3.95
2017-09-24T14:31:26.078Z,3.67
2017-09-24T14:33:52.701Z,3.50
2017-09-24T14:36:19.297Z,5.90
2017-09-24T14:38:45.954Z,9.55
2017-09-24T14:41:12.579Z,3.50
2017-09-24T14:43:39.185Z,3.70
2017-09-24T14:46:05.790Z,5.03
2017-09-24T14:48:32.411Z,5.85
2017-09-24T14:50:59.021Z,5.47
2017-09-24T14:53:25.623Z,4.37
2017-09-24T14:55:52.241Z,4.80
2017-09-24T14:58:18.847Z,3.65
2017-09-24T15:00:45.452Z,4.55
2017-09-24T15:03:12.079Z,3.58
2017-09-24T15:05:38.783Z,4.20
2017-09-24T15:08:05.383Z,4.22
2017-09-24T15:10:32.010Z,6.07
2017-09-24T15:12:58.613Z,5.90
2017-09-24T15:15:25.223Z,3.75
2017-09-24T15:17:51.846Z,4.22
2017-09-24T15:20:18.453Z,4.45
2017-09-24T15:22:45.068Z,4.30
2017-09-24T15:25:11.693Z,5.05
2017-09-24T15:27:38.294Z,4.65
2017-09-24T15:30:04.919Z,4.40
2017-09-24T15:32:31.539Z,5.35
2017-09-24T15:34:58.141Z,4.07
2017-09-24T15:37:24.754Z,5.37
2017-09-24T15:39:51.372Z,5.25
2017-09-24T15:42:17.974Z,5.62
2017-09-24T15:44:44.586Z,5.85
2017-09-24T15:47:11.209Z,4.72
2017-09-24T15:49:37.810Z,5.93
2017-09-24T15:52:04.422Z,5.40
2017-09-24T15:54:31.047Z,6.97
2017-09-24T15:56:57.649Z,5.43
2017-09-24T15:59:24.247Z,5.37
2017-09-24T16:01:50.971Z,8.93
2017-09-24T16:04:17.571Z,9.77
2017-09-24T16:06:44.243Z,6.10
2017-09-24T16:09:10.861Z,6.28
2017-09-24T16:11:37.473Z,15.48
2017-09-24T16:14:04.082Z,6.30
2017-09-24T16:16:30.707Z,10.85
2017-09-24T16:18:57.313Z,6.15
2017-09-24T16:21:23.922Z,5.22
2017-09-24T16:23:50.546Z,7.47
2017-09-24T16:26:17.149Z,6.78
2017-09-24T16:28:43.754Z,5.10
2017-09-24T16:31:10.382Z,5.70
2017-09-24T16:33:36.985Z,5.57
2017-09-24T16:36:03.601Z,6.20
2017-09-24T16:38:30.218Z,6.18
2017-09-24T16:40:56.824Z,6.12
2017-09-24T16:43:23.523Z,5.12
2017-09-24T16:45:50.146Z,6.30
2017-09-24T16:48:16.759Z,6.25
2017-09-24T16:50:43.438Z,5.12
2017-09-24T16:53:10.062Z,7.47
2017-09-24T16:55:37.015Z,6.60
2017-09-24T16:58:03.609Z,6.65
2017-09-24T17:00:30.232Z,6.43
2017-09-24T17:02:56.842Z,8.18
2017-09-24T17:05:23.478Z,6.40
2017-09-24T17:07:50.097Z,6.65
2017-09-24T17:10:16.702Z,8.75
2017-09-24T17:12:43.314Z,7.22
2017-09-24T17:15:10.034Z,7.87
2017-09-24T17:17:36.677Z,6.62
2017-09-24T17:20:03.286Z,5.65
2017-09-24T17:22:29.950Z,6.97
2017-09-24T17:24:56.598Z,6.70
2017-09-24T17:27:23.199Z,7.00
2017-09-24T17:29:49.818Z,7.40
2017-09-24T17:32:16.427Z,7.20
2017-09-24T17:34:43.030Z,7.12
2017-09-24T17:37:09.662Z,13.32
2017-09-24T17:39:36.276Z,8.80
2017-09-24T17:42:02.882Z,8.35
2017-09-24T17:44:29.498Z,7.28
2017-09-24T17:46:56.114Z,10.50
2017-09-24T17:49:22.728Z,7.55
2017-09-24T17:51:49.370Z,7.90
2017-09-24T17:54:15.992Z,10.05
2017-09-24T17:56:42.739Z,9.10
2017-09-24T17:59:09.372Z,9.77
2017-09-24T18:01:35.982Z,10.32
2017-09-24T18:04:02.593Z,9.25
2017-09-24T18:06:29.246Z,9.38
2017-09-24T18:08:55.890Z,7.93
2017-09-24T18:11:22.498Z,8.02
2017-09-24T18:13:49.117Z,8.45
2017-09-24T18:16:15.734Z,11.10
2017-09-24T18:18:42.347Z,8.13
2017-09-24T18:21:08.963Z,8.82
2017-09-24T18:23:35.569Z,8.57
2017-09-24T18:26:02.174Z,9.55
2017-09-24T18:28:28.805Z,11.02
2017-09-24T18:30:55.421Z,10.45
2017-09-24T18:33:22.081Z,11.27
2017-09-24T18:35:48.718Z,10.13
2017-09-24T18:38:15.330Z,10.70
2017-09-24T18:40:41.999Z,11.18
2017-09-24T18:43:08.734Z,10.57
2017-09-24T18:45:35.354Z,11.80
2017-09-24T18:48:01.971Z,17.60
2017-09-24T18:50:28.604Z,13.65
2017-09-24T18:52:55.219Z,13.30
2017-09-24T18:55:21.826Z,14.60
2017-09-24T18:57:48.519Z,15.05
2017-09-24T19:00:15.149Z,12.30
2017-09-24T19:02:41.770Z,11.12
2017-09-24T19:05:08.475Z,11.38
2017-09-24T19:07:35.126Z,14.82
2017-09-24T19:10:01.766Z,10.77
2017-09-24T19:12:28.406Z,10.30
2017-09-24T19:14:55.027Z,11.10
2017-09-24T19:17:21.643Z,11.10
2017-09-24T19:19:48.269Z,10.55
2017-09-24T19:22:14.881Z,10.30
2017-09-24T19:24:41.509Z,9.23
2017-09-24T19:27:09.003Z,11.95
2017-09-24T19:29:35.671Z,8.50
2017-09-24T19:32:02.342Z,9.98
2017-09-24T19:34:28.966Z,10.48
2017-09-24T19:36:55.591Z,9.82
2017-09-24T19:39:22.318Z,11.65
2017-09-24T19:41:48.966Z,12.48
2017-09-24T19:44:15.595Z,12.37
2017-09-24T19:46:42.215Z,11.25
2017-09-24T19:49:08.847Z,11.00
2017-09-24T19:51:35.456Z,12.55
2017-09-24T19:54:02.071Z,11.88
2017-09-24T19:56:28.703Z,11.35
2017-09-24T19:58:55.319Z,11.40
2017-09-24T20:01:21.940Z,11.50
2017-09-24T20:03:48.574Z,12.25
2017-09-24T20:06:15.186Z,12.82
2017-09-24T20:08:41.801Z,14.52
2017-09-24T20:11:08.435Z,12.75
2017-09-24T20:13:35.042Z,13.50
2017-09-24T20:16:01.654Z,13.07
2017-09-24T20:18:28.282Z,15.48
2017-09-24T20:20:54.901Z,15.85
2017-09-24T20:23:21.505Z,14.10
2017-09-24T20:25:48.210Z,14.70
2017-09-24T20:28:14.822Z,15.23
2017-09-24T20:30:42.378Z,14.55
2017-09-24T20:33:09.007Z,13.15
2017-09-24T20:35:35.622Z,14.13
2017-09-24T20:38:02.247Z,14.82
2017-09-24T20:40:28.870Z,13.82
2017-09-24T20:42:55.511Z,14.27
2017-09-24T20:45:22.131Z,13.82
2017-09-24T20:47:48.824Z,13.55
2017-09-24T20:50:15.433Z,13.80
2017-09-24T20:52:42.042Z,13.05
2017-09-24T20:55:08.673Z,15.90
2017-09-24T20:57:35.281Z,14.95
2017-09-24T21:00:01.899Z,13.35
2017-09-24T21:02:28.530Z,12.82
2017-09-24T21:04:55.158Z,12.57
2017-09-24T21:07:21.770Z,13.50
2017-09-24T21:09:48.426Z,13.27
2017-09-24T21:12:15.050Z,12.48
2017-09-24T21:14:41.668Z,12.30
2017-09-24T21:17:08.333Z,14.18
2017-09-24T21:19:34.955Z,13.62
2017-09-24T21:22:01.565Z,13.13
2017-09-24T21:24:28.206Z,13.10
2017-09-24T21:26:54.906Z,12.70
2017-09-24T21:29:21.526Z,12.63
2017-09-24T21:31:48.619Z,13.77
2017-09-24T21:34:15.275Z,12.00
2017-09-24T21:36:41.881Z,12.93
2017-09-24T21:39:08.514Z,13.88
2017-09-24T21:41:35.128Z,13.00
2017-09-24T21:44:01.738Z,13.82
2017-09-24T21:46:28.393Z,14.25
2017-09-24T21:48:54.997Z,15.02
2017-09-24T21:51:22.167Z,15.07
2017-09-24T21:53:48.899Z,15.57
2017-09-24T21:56:15.538Z,15.57
2017-09-24T21:58:42.163Z,13.40
2017-09-24T22:01:08.816Z,15.23
2017-09-24T22:03:35.425Z,12.27
2017-09-24T22:06:02.038Z,13.38
2017-09-24T22:08:28.661Z,13.70
2017-09-24T22:10:55.282Z,13.25
2017-09-24T22:13:21.894Z,14.60
2017-09-24T22:15:48.584Z,13.15
2017-09-24T22:18:15.281Z,15.45
2017-09-24T22:20:41.930Z,12.32
2017-09-24T22:23:08.566Z,12.52
2017-09-24T22:25:35.238Z,15.27
2017-09-24T22:28:01.846Z,15.75
2017-09-24T22:30:28.514Z,13.85
2017-09-24T22:32:55.219Z,16.08
2017-09-24T22:35:21.850Z,15.75
2017-09-24T22:37:48.489Z,14.00
2017-09-24T22:40:15.101Z,13.82
2017-09-24T22:42:41.782Z,13.77
2017-09-24T22:45:08.565Z,14.40
2017-09-24T22:47:35.262Z,15.05
2017-09-24T22:50:01.882Z,14.40
2017-09-24T22:52:28.527Z,14.20
2017-09-24T22:54:55.138Z,13.93
2017-09-24T22:57:21.759Z,15.75
2017-09-24T22:59:48.398Z,14.70
2017-09-24T23:02:15.005Z,13.45
2017-09-24T23:04:41.627Z,14.95
2017-09-24T23:07:08.331Z,13.60
2017-09-24T23:09:35.008Z,13.20
2017-09-24T23:12:01.620Z,13.00
2017-09-24T23:14:28.250Z,14.95
2017-09-24T23:16:54.861Z,11.50
2017-09-24T23:19:21.471Z,14.98
2017-09-24T23:21:48.378Z,14.95
2017-09-24T23:24:15.008Z,14.30
2017-09-24T23:26:41.622Z,14.00
2017-09-24T23:29:08.254Z,12.57
2017-09-24T23:31:34.878Z,13.95
2017-09-24T23:34:01.534Z,14.30
2017-09-24T23:36:28.157Z,14.32
2017-09-24T23:38:54.778Z,14.95
2017-09-24T23:41:21.387Z,13.32
2017-09-24T23:43:48.086Z,12.20
2017-09-24T23:46:14.698Z,12.20
2017-09-24T23:48:41.326Z,15.65
2017-09-24T23:51:07.955Z,10.90
2017-09-24T23:53:34.569Z,11.55
2017-09-24T23:56:01.286Z,14.20
2017-09-24T23:58:28.035Z,12.57
